Don's Testing Zone


Current Conditions
weather data
source:

National Weather Service
Clear Russellville, AR
Clear, 91°F
Friday, August 18, 2017 5:53 PM CDT
Temperature: 91°F/33°C
Humidity: 53%
Barometer: 29.91in/1012.1mb Barometer Steady
Wind: Variable at 3mph/6kmh
View other cities:
Searcy | Little Rock | Hot Springs | Russellville | More...
Astronomical Conditions (Clear Sky Clock)
Searcy Clear Sky Clock
    

Radar Images

NWS
    Wx Underground

NWS METAR weather data

ADDS - METARS form results





Aviation Digital Data Service (ADDS) Output produced by METARs form (2337 UTC 18 August 2017) found at http://www.aviationweather.gov/adds/metars/ 

KRUE 182253Z AUTO VRB03KT 10SM CLR 33/22 A2991 RMK AO2 SLP121 T03280222

KRUE 182153Z AUTO VRB04KT 10SM FEW055 33/21 A2994 RMK AO2 SLP131 T03330211

KRUE 182053Z AUTO 23003KT 10SM CLR 33/22 A2996 RMK AO2 SLP136 T03280217 56014

KRUE 181953Z AUTO 11003KT 10SM CLR 32/22 A2997 RMK AO2 SLP139 T03170222

KRUE 181853Z AUTO VRB03KT 10SM CLR 32/22 A2998 RMK AO2 SLP145 T03170222

KRUE 181753Z AUTO VRB03KT 10SM CLR 31/23 A3000 RMK AO2 SLP150 T03110228 1031120211 58014

KRUE 181653Z AUTO 18003KT 10SM CLR 31/24 A3003 RMK AO2 SLP159 T03060239

KRUE 181553Z AUTO 00000KT 10SM CLR 28/24 A3004 RMK AO2 SLP165 T02780244

KRUE 181453Z AUTO 00000KT 10SM FEW006 26/24 A3004 RMK AO2 SLP166 T02610239 51009

KRUE 181442Z AUTO 28003KT 10SM FEW004 24/23 A3005 RMK AO2 T02440233

KRUE 181418Z AUTO 31003KT 6SM BR OVC002 23/23 A3004 RMK AO2 T02330233

KRUE 181408Z AUTO 00000KT 2SM BR OVC002 23/23 A3004 RMK AO2 VIS 1V5 T02330233

KRUE 181353Z AUTO 00000KT 1/4SM FG VV002 23/23 A3003 RMK AO2 SLP163 T02280228

KRUE 181313Z AUTO 00000KT 1/4SM FG VV002 22/22 A3003 RMK AO2 T02220222

KRUE 181303Z AUTO 00000KT 1 3/4SM BR BKN002 22/22 A3003 RMK AO2 T02220222

KRUE 181253Z AUTO 00000KT 8SM BKN001 22/22 A3003 RMK AO2 SLP161 T02220222

KRUE 181248Z AUTO 00000KT 2 1/2SM BR BKN001 22/22 A3003 RMK AO2

KRUE 181226Z AUTO 00000KT 3/4SM BR VV001 22/22 A3002 RMK AO2 T02170217

KRUE 181221Z AUTO 00000KT 2 1/2SM BR BKN002 22/22 A3002 RMK AO2 T02170217

KRUE 181208Z AUTO 00000KT 5SM BR SCT002 21/21 A3002 RMK AO2 T02110211

KRUE 181206Z AUTO 00000KT 2 1/2SM BR BKN002 21/21 A3002 RMK AO2 T02110211

KRUE 181153Z AUTO 00000KT 1/2SM FG OVC001 21/21 A3001 RMK AO2 SLP156 T0211021110217 20206 53007

KRUE 181138Z AUTO 00000KT 1 3/4SM BR OVC001 22/22 A3001 RMK AO2 T02170217

KRUE 181101Z AUTO 00000KT 3SM BR OVC003 21/21 A2999 RMK AO2 T02110211

KRUE 181053Z AUTO 00000KT 1SM BR OVC003 21/21 A2999 RMK AO2 SLP149 T02110211

KRUE 181036Z AUTO 00000KT 1/2SM FG VV003 21/21 A3000 RMK AO2 T02060206

KRUE 181023Z AUTO 17003KT 1 1/4SM BR OVC003 21/21 A2999 RMK AO2 T02060206

KRUE 181012Z AUTO 00000KT 2SM BR BKN003 21/21 A2999 RMK AO2 T02060206

KRUE 180953Z AUTO 00000KT 1/4SM FG VV002 21/21 A2999 RMK AO2 SLP148 T02110211

KRUE 180915Z AUTO 00000KT 1/4SM FG VV001 21/21 A2999 RMK AO2 T02110211

KRUE 180906Z AUTO 00000KT 1 1/4SM BR OVC002 21/21 A2999 RMK AO2 VIS 3/4V2 1/2T02110211

KRUE 180853Z AUTO 00000KT 1/2SM FG VV002 21/21 A2999 RMK AO2 SLP149 T0211021153002

KRUE 180837Z AUTO 00000KT 2SM BR BKN004 21/21 A2999 RMK AO2 VIS 1V5 T02110211

KRUE 180826Z AUTO 00000KT 5SM BR SCT003 21/21 A3000 RMK AO2 T02110211

KRUE 180814Z AUTO 00000KT 2 1/2SM BR FEW003 21/21 A2999 RMK AO2 VIS 1 1/2V5T02110211

KRUE 180759Z AUTO 00000KT 3SM BR CLR 21/21 A2999 RMK AO2 T02110211

KRUE 180753Z AUTO 00000KT 1 3/4SM BR CLR 21/21 A2999 RMK AO2 SLP146 T02110211

KRUE 180653Z AUTO 18003KT 7SM CLR 22/22 A2998 RMK AO2 SLP144 T02170217

KRUE 180640Z AUTO 00000KT 4SM BR CLR 22/22 A2998 RMK AO2 T02170217

KRUE 180631Z AUTO 00000KT 2SM BR CLR 22/22 A2998 RMK AO2 T02170217

KRUE 180553Z AUTO 00000KT 7SM CLR 22/22 A2999 RMK AO2 SLP145 T02170217 1028320217 403000211 50001

KRUE 180453Z AUTO 00000KT 8SM CLR 22/22 A2999 RMK AO2 SLP147 T02220222

KRUE 180353Z AUTO 00000KT 10SM CLR 23/23 A3000 RMK AO2 SLP150 T02280228

KRUE 180253Z AUTO 00000KT 10SM CLR 23/23 A2998 RMK AO2 SLP145 T02280228 53014

KRUE 180153Z AUTO 00000KT 10SM CLR 24/23 A2996 RMK AO2 SLP138 T02390228

KRUE 180053Z AUTO 00000KT 10SM CLR 26/23 A2995 RMK AO2 SLP136 T02560228

KRUE 172353Z AUTO 29005KT 10SM CLR 28/22 A2994 RMK AO2 SLP131 T02830222 1030020278 56010